createdAt,value
2023-05-20T00:01:49.710Z,15.94
2023-05-20T00:04:16.297Z,15.94
2023-05-20T00:06:42.925Z,15.90
2023-05-20T00:09:09.488Z,15.84
2023-05-20T00:11:36.064Z,15.81
2023-05-20T00:14:02.754Z,15.77
2023-05-20T00:16:29.717Z,15.75
2023-05-20T00:18:56.767Z,15.72
2023-05-20T00:21:23.401Z,15.71
2023-05-20T00:23:50.529Z,15.71
2023-05-20T00:26:17.115Z,15.69
2023-05-20T00:28:44.855Z,15.65
2023-05-20T00:31:11.678Z,15.64
2023-05-20T00:33:38.340Z,15.63
2023-05-20T00:36:05.425Z,15.63
2023-05-20T00:38:33.141Z,15.62
2023-05-20T00:40:59.823Z,15.58
2023-05-20T00:43:26.697Z,15.55
2023-05-20T00:45:53.974Z,15.52
2023-05-20T00:48:21.171Z,15.51
2023-05-20T00:50:48.983Z,15.49
2023-05-20T00:53:16.912Z,15.48
2023-05-20T00:55:43.841Z,15.45
2023-05-20T00:58:10.826Z,15.41
2023-05-20T01:00:38.434Z,15.38
2023-05-20T01:03:05.319Z,15.38
2023-05-20T01:05:34.312Z,15.38
2023-05-20T01:08:02.221Z,15.38
2023-05-20T01:10:29.641Z,15.38
2023-05-20T01:13:07.871Z,15.35
2023-05-20T01:15:40.777Z,15.33
2023-05-20T01:18:08.308Z,15.31
2023-05-20T01:20:38.822Z,15.30
2023-05-20T01:23:05.549Z,15.29
2023-05-20T01:25:32.761Z,15.27
2023-05-20T01:27:59.533Z,15.24
2023-05-20T01:30:33.913Z,15.23
2023-05-20T01:33:03.214Z,15.18
2023-05-20T01:35:30.409Z,15.16
2023-05-20T01:37:57.424Z,15.15
2023-05-20T01:40:24.064Z,15.15
2023-05-20T01:42:52.536Z,15.14
2023-05-20T01:45:19.220Z,15.13
2023-05-20T01:47:45.957Z,15.12
2023-05-20T01:50:13.098Z,15.11
2023-05-20T01:52:39.936Z,15.09
2023-05-20T01:55:06.857Z,15.06
2023-05-20T01:57:34.314Z,15.05
2023-05-20T02:00:01.006Z,15.04
2023-05-20T02:02:27.881Z,15.06
2023-05-20T02:04:54.800Z,15.07
2023-05-20T02:07:21.469Z,15.06
2023-05-20T02:09:48.034Z,15.03
2023-05-20T02:12:17.519Z,15.01
2023-05-20T02:14:45.216Z,15.01
2023-05-20T02:17:13.924Z,15.02
2023-05-20T02:19:42.328Z,15.04
2023-05-20T02:22:08.938Z,15.05
2023-05-20T02:24:36.078Z,15.03
2023-05-20T02:27:04.152Z,15.00
2023-05-20T02:29:31.086Z,14.97
2023-05-20T02:31:57.864Z,14.94
2023-05-20T02:34:25.633Z,14.90
2023-05-20T02:36:52.427Z,14.88
2023-05-20T02:39:19.372Z,14.88
2023-05-20T02:41:45.931Z,14.87
2023-05-20T02:44:13.120Z,14.88
2023-05-20T02:46:40.194Z,14.89
2023-05-20T02:49:06.709Z,14.90
2023-05-20T02:51:33.411Z,14.92
2023-05-20T02:53:59.963Z,14.93
2023-05-20T02:56:26.486Z,14.95
2023-05-20T02:58:53.017Z,14.97
2023-05-20T03:01:19.618Z,14.97
2023-05-20T03:03:46.161Z,14.99
2023-05-20T03:06:14.627Z,14.99
2023-05-20T03:08:44.214Z,15.01
2023-05-20T03:11:11.281Z,15.01
2023-05-20T03:13:37.914Z,15.02
2023-05-20T03:16:04.654Z,15.03
2023-05-20T03:18:32.697Z,15.02
2023-05-20T03:20:59.889Z,15.02
2023-05-20T03:23:26.639Z,15.00
2023-05-20T03:25:53.211Z,15.00
2023-05-20T03:28:19.781Z,15.02
2023-05-20T03:30:47.079Z,15.04
2023-05-20T03:33:15.524Z,15.05
2023-05-20T03:35:42.173Z,15.08
2023-05-20T03:38:08.738Z,15.09
2023-05-20T03:40:35.684Z,15.13
2023-05-20T03:43:03.607Z,15.17
2023-05-20T03:45:30.276Z,15.24
2023-05-20T03:48:03.607Z,15.34
2023-05-20T03:50:32.356Z,15.44
2023-05-20T03:53:00.235Z,15.54
2023-05-20T03:55:27.347Z,15.65
2023-05-20T03:57:54.745Z,15.77
2023-05-20T04:00:22.782Z,15.89
2023-05-20T04:02:49.451Z,16.00
2023-05-20T04:05:17.875Z,16.09
2023-05-20T04:07:44.548Z,16.18
2023-05-20T04:10:12.106Z,16.26
2023-05-20T04:12:38.802Z,16.34
2023-05-20T04:15:06.255Z,16.38
2023-05-20T04:17:39.966Z,16.45
2023-05-20T04:20:07.673Z,16.49
2023-05-20T04:22:35.520Z,16.57
2023-05-20T04:25:04.213Z,16.67
2023-05-20T04:27:33.077Z,16.77
2023-05-20T04:30:01.964Z,16.88
2023-05-20T04:32:30.363Z,16.99
2023-05-20T04:34:59.246Z,17.06
2023-05-20T04:37:25.804Z,17.12
2023-05-20T04:39:52.323Z,17.21
2023-05-20T04:42:19.682Z,17.31
2023-05-20T04:44:47.418Z,17.40
2023-05-20T04:47:14.815Z,17.47
2023-05-20T04:49:41.780Z,17.49
2023-05-20T04:52:09.295Z,17.56
2023-05-20T04:54:36.173Z,17.58
2023-05-20T04:57:03.649Z,17.60
2023-05-20T04:59:30.484Z,17.63
2023-05-20T05:01:57.284Z,17.70
2023-05-20T05:04:23.811Z,17.80
2023-05-20T05:06:50.693Z,17.86
2023-05-20T05:09:17.667Z,17.94
2023-05-20T05:11:44.691Z,18.04
2023-05-20T05:14:12.236Z,18.06
2023-05-20T05:16:39.345Z,18.00
2023-05-20T05:19:06.804Z,17.92
2023-05-20T05:21:35.854Z,17.87
2023-05-20T05:24:03.511Z,17.89
2023-05-20T05:26:30.327Z,17.98
2023-05-20T05:28:57.106Z,18.03
2023-05-20T05:31:23.650Z,18.03
2023-05-20T05:33:50.316Z,18.09
2023-05-20T05:36:17.267Z,18.21
2023-05-20T05:38:45.649Z,18.33
2023-05-20T05:41:12.219Z,18.38
2023-05-20T05:43:39.813Z,18.44
2023-05-20T05:46:06.846Z,18.42
2023-05-20T05:48:33.524Z,18.34
2023-05-20T05:51:00.183Z,18.33
2023-05-20T05:53:27.187Z,18.31
2023-05-20T05:55:53.818Z,18.40
2023-05-20T05:58:21.180Z,18.49
2023-05-20T06:00:50.855Z,18.55
2023-05-20T06:03:18.021Z,18.65
2023-05-20T06:05:46.717Z,18.79
2023-05-20T06:08:13.587Z,18.92
2023-05-20T06:10:40.358Z,19.07
2023-05-20T06:13:06.982Z,19.19
2023-05-20T06:15:33.925Z,19.22
2023-05-20T06:18:02.202Z,19.22
2023-05-20T06:20:30.651Z,19.32
2023-05-20T06:22:58.128Z,19.41
2023-05-20T06:25:30.045Z,19.53
2023-05-20T06:27:56.998Z,19.63
2023-05-20T06:30:24.064Z,19.74
2023-05-20T06:32:51.485Z,19.88
2023-05-20T06:35:18.056Z,20.00
2023-05-20T06:37:44.802Z,20.08
2023-05-20T06:40:11.907Z,20.02
2023-05-20T06:42:39.463Z,19.99
2023-05-20T06:45:06.512Z,20.02
2023-05-20T06:47:49.401Z,20.18
2023-05-20T06:50:16.147Z,20.29
2023-05-20T06:52:43.054Z,20.36
2023-05-20T06:55:10.952Z,20.37
2023-05-20T06:57:37.962Z,20.42
2023-05-20T07:00:05.367Z,20.48
2023-05-20T07:02:34.559Z,20.55
2023-05-20T07:05:01.098Z,20.69
2023-05-20T07:07:27.769Z,20.86
2023-05-20T07:09:54.766Z,20.95
2023-05-20T07:12:21.364Z,21.00
2023-05-20T07:14:48.063Z,21.12
2023-05-20T07:17:15.898Z,21.23
2023-05-20T07:19:43.202Z,21.32
2023-05-20T07:22:10.914Z,21.51
2023-05-20T07:24:55.606Z,21.69
2023-05-20T07:27:22.829Z,21.78
2023-05-20T07:29:49.622Z,21.85
2023-05-20T07:32:16.290Z,21.89
2023-05-20T07:34:47.361Z,21.89
2023-05-20T07:37:18.588Z,21.92
2023-05-20T07:39:45.400Z,21.96
2023-05-20T07:42:12.040Z,21.95
2023-05-20T07:44:43.429Z,22.02
2023-05-20T07:47:12.785Z,21.91
2023-05-20T07:49:41.272Z,21.85
2023-05-20T07:52:07.871Z,21.90
2023-05-20T07:54:34.629Z,21.96
2023-05-20T07:57:01.568Z,22.05
2023-05-20T07:59:29.361Z,22.12
2023-05-20T08:01:56.283Z,22.23
2023-05-20T08:04:24.103Z,22.25
2023-05-20T08:06:52.591Z,22.26
2023-05-20T08:09:31.475Z,22.22
2023-05-20T08:11:58.591Z,22.18
2023-05-20T08:14:25.230Z,22.21
2023-05-20T08:16:54.959Z,22.36
2023-05-20T08:19:22.028Z,22.49
2023-05-20T08:21:49.174Z,22.52
2023-05-20T08:24:16.422Z,22.42
2023-05-20T08:26:43.340Z,22.42
2023-05-20T08:29:09.935Z,22.53
2023-05-20T08:31:37.125Z,22.65
2023-05-20T08:34:03.937Z,22.73
2023-05-20T08:36:30.922Z,22.81
2023-05-20T08:38:57.587Z,22.86
2023-05-20T08:41:24.298Z,22.81
2023-05-20T08:43:51.239Z,22.80
2023-05-20T08:46:19.430Z,22.78
2023-05-20T08:48:46.307Z,22.79
2023-05-20T08:51:13.217Z,22.82
2023-05-20T08:53:39.894Z,22.91
2023-05-20T08:56:07.135Z,22.99
2023-05-20T08:58:33.878Z,23.14
2023-05-20T09:01:00.464Z,23.37
2023-05-20T09:03:27.449Z,23.43
2023-05-20T09:06:02.453Z,23.27
2023-05-20T09:08:30.308Z,23.10
2023-05-20T09:11:00.438Z,23.19
2023-05-20T09:13:28.370Z,23.40
2023-05-20T09:15:57.585Z,23.49
2023-05-20T09:18:26.104Z,23.48
2023-05-20T09:20:52.679Z,23.50
2023-05-20T09:23:21.346Z,23.59
2023-05-20T09:25:49.257Z,23.72
2023-05-20T09:28:17.207Z,23.89
2023-05-20T09:30:45.863Z,24.01
2023-05-20T09:33:13.711Z,24.11
2023-05-20T09:35:42.703Z,24.20
2023-05-20T09:38:09.687Z,24.22
2023-05-20T09:40:39.757Z,24.19
2023-05-20T09:43:11.852Z,24.21
2023-05-20T09:45:39.115Z,24.28
2023-05-20T09:48:05.895Z,24.31
2023-05-20T09:50:33.217Z,24.36
2023-05-20T09:53:02.289Z,24.41
2023-05-20T09:55:29.539Z,24.46
2023-05-20T09:57:56.111Z,24.43
2023-05-20T10:00:22.680Z,24.27
2023-05-20T10:02:52.699Z,24.21
2023-05-20T10:05:32.623Z,24.19
2023-05-20T10:08:37.577Z,24.16
2023-05-20T10:11:21.279Z,24.11
2023-05-20T10:14:09.725Z,24.14
2023-05-20T10:16:53.959Z,24.13
2023-05-20T10:19:29.256Z,24.12
2023-05-20T10:22:10.091Z,24.13
2023-05-20T10:24:40.249Z,24.06
2023-05-20T10:27:14.967Z,23.93
2023-05-20T10:29:46.280Z,23.76
2023-05-20T10:32:26.098Z,23.73
2023-05-20T10:34:52.881Z,23.76
2023-05-20T10:37:32.961Z,23.77
2023-05-20T10:40:05.350Z,23.61
2023-05-20T10:42:32.897Z,23.46
2023-05-20T10:44:59.965Z,23.35
2023-05-20T10:47:27.406Z,23.33
2023-05-20T10:49:54.123Z,23.30
2023-05-20T10:52:20.916Z,23.27
2023-05-20T10:54:58.386Z,23.24
2023-05-20T10:57:27.092Z,23.20
2023-05-20T10:59:53.937Z,23.22
2023-05-20T11:02:25.927Z,23.25
2023-05-20T11:04:52.796Z,23.23
2023-05-20T11:07:29.802Z,23.26
2023-05-20T11:09:59.800Z,23.27
2023-05-20T11:12:27.360Z,23.26
2023-05-20T11:14:53.998Z,23.27
2023-05-20T11:17:21.040Z,23.25
2023-05-20T11:19:47.704Z,23.24
2023-05-20T11:22:14.239Z,23.30
2023-05-20T11:24:40.913Z,23.36
2023-05-20T11:27:10.467Z,23.41
2023-05-20T11:29:38.009Z,23.41
2023-05-20T11:32:04.980Z,23.41
2023-05-20T11:34:35.742Z,23.40
2023-05-20T11:37:02.506Z,23.44
2023-05-20T11:39:29.873Z,23.41
2023-05-20T11:41:58.440Z,23.35
2023-05-20T11:44:25.556Z,23.35
2023-05-20T11:46:52.055Z,23.33
2023-05-20T11:49:18.566Z,23.35
2023-05-20T11:51:45.258Z,23.40
2023-05-20T11:54:12.113Z,23.37
2023-05-20T11:56:40.769Z,23.27
2023-05-20T11:59:09.011Z,23.22
2023-05-20T12:01:42.843Z,23.21
2023-05-20T12:04:09.775Z,23.17
2023-05-20T12:06:45.493Z,23.16
2023-05-20T12:09:13.476Z,23.20
2023-05-20T12:11:40.787Z,23.28
2023-05-20T12:14:08.346Z,23.33
2023-05-20T12:16:35.937Z,23.32
2023-05-20T12:19:02.879Z,23.33
2023-05-20T12:21:30.847Z,23.39
2023-05-20T12:24:00.530Z,23.40
2023-05-20T12:26:27.997Z,23.36
2023-05-20T12:28:56.109Z,23.29
2023-05-20T12:31:22.785Z,23.16
2023-05-20T12:33:51.783Z,23.04
2023-05-20T12:36:20.072Z,22.96
2023-05-20T12:38:50.528Z,22.96
2023-05-20T12:41:17.163Z,22.97
2023-05-20T12:43:43.899Z,22.98
2023-05-20T12:46:11.068Z,22.99
2023-05-20T12:48:37.999Z,22.98
2023-05-20T12:51:05.363Z,22.92
2023-05-20T12:53:32.229Z,22.84
2023-05-20T12:55:59.018Z,22.78
2023-05-20T12:58:26.088Z,22.73
2023-05-20T13:00:58.709Z,22.77
2023-05-20T13:03:25.673Z,22.78
2023-05-20T13:05:53.651Z,22.71
2023-05-20T13:08:22.021Z,22.72
2023-05-20T13:10:48.804Z,22.77
2023-05-20T13:13:20.869Z,22.74
2023-05-20T13:15:49.317Z,22.69
2023-05-20T13:18:18.184Z,22.68
2023-05-20T13:20:45.531Z,22.66
2023-05-20T13:23:12.968Z,22.65
2023-05-20T13:25:39.934Z,22.61
2023-05-20T13:28:08.472Z,22.57
2023-05-20T13:30:36.092Z,22.56
2023-05-20T13:33:03.584Z,22.56
2023-05-20T13:35:30.619Z,22.54
2023-05-20T13:37:57.127Z,22.50
2023-05-20T13:40:24.500Z,22.41
2023-05-20T13:42:51.167Z,22.34
2023-05-20T13:45:18.150Z,22.34
2023-05-20T13:47:44.921Z,22.32
2023-05-20T13:50:11.642Z,22.31
2023-05-20T13:52:38.812Z,22.28
2023-05-20T13:55:06.046Z,22.26
2023-05-20T13:57:33.180Z,22.25
2023-05-20T14:00:02.307Z,22.18
2023-05-20T14:02:37.472Z,22.10
2023-05-20T14:05:08.213Z,22.09
2023-05-20T14:07:35.367Z,22.09
2023-05-20T14:10:02.338Z,22.08
2023-05-20T14:12:29.704Z,22.06
2023-05-20T14:14:57.347Z,22.04
2023-05-20T14:17:25.344Z,22.02
2023-05-20T14:19:51.992Z,21.96
2023-05-20T14:22:20.044Z,21.92
2023-05-20T14:24:46.995Z,21.88
2023-05-20T14:27:14.794Z,21.85
2023-05-20T14:29:41.458Z,21.86
2023-05-20T14:32:08.560Z,21.88
2023-05-20T14:34:35.427Z,21.91
2023-05-20T14:37:07.331Z,21.93
2023-05-20T14:39:34.287Z,21.91
2023-05-20T14:42:02.541Z,21.87
2023-05-20T14:44:29.498Z,21.85
2023-05-20T14:46:56.154Z,21.87
2023-05-20T14:49:23.024Z,21.85
2023-05-20T14:51:49.664Z,21.81
2023-05-20T14:54:18.373Z,21.77
2023-05-20T14:56:44.955Z,21.73
2023-05-20T14:59:11.597Z,21.70
2023-05-20T15:01:38.157Z,21.69
2023-05-20T15:04:04.929Z,21.65
2023-05-20T15:06:32.961Z,21.56
2023-05-20T15:08:59.618Z,21.49
2023-05-20T15:11:26.184Z,21.43
2023-05-20T15:13:52.884Z,21.41
2023-05-20T15:16:19.559Z,21.41
2023-05-20T15:18:46.152Z,21.37
2023-05-20T15:21:12.684Z,21.31
2023-05-20T15:23:39.152Z,21.27
2023-05-20T15:26:05.737Z,21.24
2023-05-20T15:28:33.064Z,21.20
2023-05-20T15:30:59.561Z,21.16
2023-05-20T15:33:26.156Z,21.11
2023-05-20T15:35:52.815Z,21.07
2023-05-20T15:38:19.451Z,21.05
2023-05-20T15:40:46.769Z,21.05
2023-05-20T15:43:13.363Z,21.01
2023-05-20T15:45:39.924Z,20.96
2023-05-20T15:48:07.609Z,20.93
2023-05-20T15:50:34.989Z,20.88
2023-05-20T15:53:01.997Z,20.82
2023-05-20T15:55:28.875Z,20.74
2023-05-20T15:57:55.404Z,20.68
2023-05-20T16:00:22.165Z,20.66
2023-05-20T16:02:48.877Z,20.65
2023-05-20T16:05:15.488Z,20.63
2023-05-20T16:07:42.330Z,20.62
2023-05-20T16:10:09.644Z,20.62
2023-05-20T16:12:36.535Z,20.58
2023-05-20T16:15:03.458Z,20.51
2023-05-20T16:17:30.137Z,20.47
2023-05-20T16:19:56.751Z,20.43
2023-05-20T16:22:23.237Z,20.39
2023-05-20T16:24:49.768Z,20.35
2023-05-20T16:27:16.477Z,20.31
2023-05-20T16:29:44.615Z,20.27
2023-05-20T16:32:11.154Z,20.23
2023-05-20T16:34:37.730Z,20.21
2023-05-20T16:37:04.294Z,20.18
2023-05-20T16:39:30.772Z,20.13
2023-05-20T16:41:57.342Z,20.10
2023-05-20T16:44:23.913Z,20.05
2023-05-20T16:46:52.660Z,20.01
2023-05-20T16:49:20.810Z,19.97
2023-05-20T16:51:47.450Z,19.93
2023-05-20T16:54:13.959Z,19.89
2023-05-20T16:56:40.595Z,19.87
2023-05-20T16:59:07.141Z,19.84
2023-05-20T17:01:33.871Z,19.79
2023-05-20T17:04:00.734Z,19.73
2023-05-20T17:06:27.274Z,19.69
2023-05-20T17:08:53.790Z,19.64
2023-05-20T17:11:20.866Z,19.60
2023-05-20T17:13:47.365Z,19.56
2023-05-20T17:16:14.167Z,19.51
2023-05-20T17:18:41.186Z,19.45
2023-05-20T17:21:09.477Z,19.39
2023-05-20T17:23:35.980Z,19.33
2023-05-20T17:26:02.642Z,19.27
2023-05-20T17:28:29.316Z,19.22
2023-05-20T17:30:56.004Z,19.15
2023-05-20T17:33:23.650Z,19.09
2023-05-20T17:35:50.350Z,19.04
2023-05-20T17:38:16.915Z,18.98
2023-05-20T17:40:43.479Z,18.93
2023-05-20T17:43:10.084Z,18.88
2023-05-20T17:45:36.782Z,18.82
2023-05-20T17:48:07.769Z,18.77
2023-05-20T17:50:35.643Z,18.71
2023-05-20T17:53:02.421Z,18.65
2023-05-20T17:55:29.521Z,18.59
2023-05-20T17:57:57.281Z,18.53
2023-05-20T18:00:24.569Z,18.48
2023-05-20T18:02:55.480Z,18.43
2023-05-20T18:05:22.405Z,18.38
2023-05-20T18:07:48.920Z,18.32
2023-05-20T18:10:15.713Z,18.27
2023-05-20T18:12:42.425Z,18.23
2023-05-20T18:15:09.265Z,18.20
2023-05-20T18:17:36.346Z,18.16
2023-05-20T18:20:05.240Z,18.12
2023-05-20T18:22:31.931Z,18.08
2023-05-20T18:24:58.453Z,18.04
2023-05-20T18:27:24.934Z,18.01
2023-05-20T18:29:51.540Z,17.98
2023-05-20T18:32:18.136Z,17.94
2023-05-20T18:34:44.863Z,17.90
2023-05-20T18:37:11.356Z,17.87
2023-05-20T18:39:38.357Z,17.85
2023-05-20T18:42:05.391Z,17.82
2023-05-20T18:44:32.310Z,17.78
2023-05-20T18:46:58.918Z,17.75
2023-05-20T18:49:25.883Z,17.70
2023-05-20T18:51:52.404Z,17.67
2023-05-20T18:54:18.874Z,17.64
2023-05-20T18:56:47.747Z,17.60
2023-05-20T18:59:14.289Z,17.56
2023-05-20T19:01:40.993Z,17.54
2023-05-20T19:04:07.502Z,17.51
2023-05-20T19:06:36.750Z,17.47
2023-05-20T19:09:03.838Z,17.43
2023-05-20T19:11:30.839Z,17.39
2023-05-20T19:13:58.043Z,17.36
2023-05-20T19:16:25.571Z,17.32
2023-05-20T19:18:52.436Z,17.28
2023-05-20T19:21:22.058Z,17.25
2023-05-20T19:23:49.501Z,17.19
2023-05-20T19:26:16.925Z,17.15
2023-05-20T19:28:43.521Z,17.13
2023-05-20T19:31:10.321Z,17.11
2023-05-20T19:33:39.384Z,17.09
2023-05-20T19:36:05.944Z,17.06
2023-05-20T19:38:32.540Z,17.02
2023-05-20T19:41:02.139Z,16.98
2023-05-20T19:43:29.939Z,16.94
2023-05-20T19:45:56.712Z,16.89
2023-05-20T19:48:23.561Z,16.85
2023-05-20T19:50:50.132Z,16.82
2023-05-20T19:53:20.491Z,16.78
2023-05-20T19:55:47.162Z,16.74
2023-05-20T19:58:14.229Z,16.70
2023-05-20T20:00:40.812Z,16.67
2023-05-20T20:03:07.466Z,16.64
2023-05-20T20:05:34.616Z,16.61
2023-05-20T20:08:01.629Z,16.58
2023-05-20T20:10:30.437Z,16.54
2023-05-20T20:12:56.909Z,16.50
2023-05-20T20:15:24.455Z,16.46
2023-05-20T20:17:51.568Z,16.42
2023-05-20T20:20:18.742Z,16.38
2023-05-20T20:22:45.771Z,16.34
2023-05-20T20:25:15.415Z,16.31
2023-05-20T20:27:45.721Z,16.26
2023-05-20T20:30:13.044Z,16.23
2023-05-20T20:32:40.318Z,16.18
2023-05-20T20:35:07.483Z,16.13
2023-05-20T20:37:35.374Z,16.09
2023-05-20T20:40:12.286Z,16.05
2023-05-20T20:42:44.477Z,16.00
2023-05-20T20:45:14.582Z,15.97
2023-05-20T20:47:43.191Z,15.92
2023-05-20T20:50:10.908Z,15.89
2023-05-20T20:52:38.540Z,15.84
2023-05-20T20:55:11.938Z,15.78
2023-05-20T20:57:38.643Z,15.74
2023-05-20T21:00:25.968Z,15.69
2023-05-20T21:02:52.603Z,15.64
2023-05-20T21:05:20.967Z,15.59
2023-05-20T21:07:49.475Z,15.56
2023-05-20T21:10:17.118Z,15.52
2023-05-20T21:12:43.640Z,15.47
2023-05-20T21:15:11.941Z,15.43
2023-05-20T21:17:38.605Z,15.39
2023-05-20T21:20:06.272Z,15.36
2023-05-20T21:22:33.208Z,15.35
2023-05-20T21:24:59.763Z,15.32
2023-05-20T21:27:26.299Z,15.28
2023-05-20T21:29:53.260Z,15.27
2023-05-20T21:32:19.756Z,15.25
2023-05-20T21:34:46.286Z,15.22
2023-05-20T21:37:12.767Z,15.19
2023-05-20T21:39:39.238Z,15.15
2023-05-20T21:42:06.753Z,15.10
2023-05-20T21:44:33.291Z,15.07
2023-05-20T21:46:59.950Z,15.03
2023-05-20T21:49:26.585Z,14.99
2023-05-20T21:51:53.340Z,14.95
2023-05-20T21:54:19.868Z,14.92
2023-05-20T21:56:46.364Z,14.87
2023-05-20T21:59:13.970Z,14.82
2023-05-20T22:01:40.666Z,14.76
2023-05-20T22:04:07.375Z,14.71
2023-05-20T22:06:35.511Z,14.65
2023-05-20T22:09:02.755Z,14.60
2023-05-20T22:11:29.609Z,14.55
2023-05-20T22:13:56.617Z,14.49
2023-05-20T22:16:24.063Z,14.45
2023-05-20T22:18:53.171Z,14.40
2023-05-20T22:21:20.967Z,14.35
2023-05-20T22:23:47.665Z,14.29
2023-05-20T22:26:14.182Z,14.23
2023-05-20T22:28:40.736Z,14.16
2023-05-20T22:31:07.844Z,14.10
2023-05-20T22:33:36.352Z,14.05
2023-05-20T22:36:02.979Z,14.02
2023-05-20T22:38:30.175Z,13.95
2023-05-20T22:40:56.721Z,13.89
2023-05-20T22:43:23.972Z,13.82
2023-05-20T22:45:50.757Z,13.77
2023-05-20T22:48:18.668Z,13.71
2023-05-20T22:50:45.757Z,13.67
2023-05-20T22:53:12.326Z,13.64
2023-05-20T22:55:38.938Z,13.59
2023-05-20T22:58:07.289Z,13.54
2023-05-20T23:00:34.577Z,13.50
2023-05-20T23:03:01.127Z,13.45
2023-05-20T23:05:29.388Z,13.41
2023-05-20T23:07:57.501Z,13.36
2023-05-20T23:10:25.098Z,13.33
2023-05-20T23:12:51.852Z,13.28
2023-05-20T23:15:18.609Z,13.26
2023-05-20T23:17:45.509Z,13.21
2023-05-20T23:20:13.576Z,13.15
2023-05-20T23:22:40.766Z,13.11
2023-05-20T23:25:07.816Z,13.05
2023-05-20T23:27:35.640Z,13.00
2023-05-20T23:30:03.095Z,12.96
2023-05-20T23:32:30.697Z,12.92
2023-05-20T23:34:57.387Z,12.88
2023-05-20T23:37:23.999Z,12.83
2023-05-20T23:39:50.461Z,12.79
2023-05-20T23:42:16.955Z,12.76
2023-05-20T23:44:43.463Z,12.71
2023-05-20T23:47:12.719Z,12.68
2023-05-20T23:49:40.867Z,12.65
2023-05-20T23:52:07.417Z,12.62
2023-05-20T23:54:34.366Z,12.59
2023-05-20T23:57:00.875Z,12.55
2023-05-20T23:59:27.546Z,12.51
